Time;durP1;ratioP1;P1;durP2;ratioP2;P2;SDS_P1;SDS_P2;PMS_P1;PMS_P2;Temp;Humidity;BMP_temperature;BMP_pressure;BME280_temperature;BME280_humidity;BME280_pressure;Samples;Min_cycle;Max_cycle;Signal;HPM_P1;HPM_P2
2023/11/14 00:02:26;;;;;;;2.20;0.30;;;12.50;77.60;;;;;;5095416;28;20724;-58
2023/11/14 00:04:53;;;;;;;1.60;0.30;;;12.60;96.00;;;;;;5095201;28;20422;-58
2023/11/14 00:07:22;;;;;;;0.95;0.30;;;12.60;80.20;;;;;;5095678;28;20422;-58
2023/11/14 00:09:49;;;;;;;2.42;0.40;;;12.50;77.70;;;;;;5095148;28;20414;-58
2023/11/14 00:12:24;;;;;;;2.33;0.40;;;12.60;90.40;;;;;;5094752;28;20503;-58
2023/11/14 00:14:51;;;;;;;1.73;0.30;;;12.50;77.00;;;;;;5093587;28;20520;-59
2023/11/14 00:17:18;;;;;;;0.50;0.30;;;12.50;63.40;;;;;;5094056;28;20425;-59
2023/11/14 00:19:45;;;;;;;1.30;0.30;;;12.60;80.60;;;;;;5094477;28;20856;-59
2023/11/14 00:22:13;;;;;;;2.10;0.33;;;12.50;52.20;;;;;;5094983;28;20414;-57
2023/11/14 00:24:41;;;;;;;2.40;0.40;;;12.60;47.80;;;;;;5095581;28;20504;-58
2023/11/14 00:27:08;;;;;;;0.80;0.30;;;12.60;41.00;;;;;;5095680;28;20758;-59
2023/11/14 00:29:36;;;;;;;2.00;0.40;;;12.60;26.70;;;;;;5094975;28;20520;-59
2023/11/14 00:32:03;;;;;;;0.90;0.30;;;12.60;47.40;;;;;;5094371;28;20426;-58
2023/11/14 00:34:30;;;;;;;1.30;0.30;;;12.50;61.50;;;;;;5094422;28;20512;-59
2023/11/14 00:36:57;;;;;;;1.80;0.40;;;12.50;54.40;;;;;;5095338;28;20418;-58
2023/11/14 00:39:24;;;;;;;0.90;0.30;;;12.40;48.60;;;;;;5094573;28;20471;-58
2023/11/14 00:41:53;;;;;;;1.60;0.40;;;12.30;34.80;;;;;;5095535;28;20511;-58
2023/11/14 00:44:20;;;;;;;2.57;0.37;;;12.30;95.80;;;;;;5094801;28;20421;-58
2023/11/14 00:46:47;;;;;;;0.90;0.30;;;12.30;88.50;;;;;;5095350;28;20425;-58
2023/11/14 00:49:14;;;;;;;2.30;0.30;;;12.30;76.00;;;;;;5095044;28;20418;-58
2023/11/14 00:51:41;;;;;;;3.60;0.30;;;12.30;83.40;;;;;;5095534;28;20465;-58
2023/11/14 00:54:08;;;;;;;1.20;0.40;;;12.20;75.00;;;;;;5095239;28;20433;-56
2023/11/14 00:56:35;;;;;;;1.83;0.32;;;12.10;97.80;;;;;;5095211;28;20518;-60
2023/11/14 00:59:04;;;;;;;2.17;0.30;;;12.00;99.90;;;;;;5094760;28;20802;-58
2023/11/14 01:01:31;;;;;;;0.85;0.30;;;11.90;99.90;;;;;;5094766;28;20467;-59
2023/11/14 01:03:58;;;;;;;2.45;0.40;;;12.00;99.90;;;;;;5094910;28;20894;-58
2023/11/14 01:06:26;;;;;;;1.50;0.35;;;12.00;99.90;;;;;;5094926;28;20410;-58
2023/11/14 01:08:53;;;;;;;1.90;0.30;;;12.00;99.90;;;;;;5094921;28;20805;-58
2023/11/14 01:11:20;;;;;;;1.92;0.30;;;11.90;99.90;;;;;;5093971;28;20506;-59
2023/11/14 01:13:47;;;;;;;0.80;0.30;;;11.90;99.90;;;;;;5094794;28;20474;-58
2023/11/14 01:16:16;;;;;;;2.05;0.40;;;12.00;99.90;;;;;;5094709;28;20418;-58
2023/11/14 01:18:43;;;;;;;2.40;0.52;;;12.00;99.90;;;;;;5094635;28;20715;-58
2023/11/14 01:21:15;;;;;;;1.30;0.40;;;12.00;99.90;;;;;;5094246;28;20458;-58
2023/11/14 01:23:42;;;;;;;1.55;0.30;;;12.00;99.90;;;;;;5095023;28;20414;-58
2023/11/14 01:26:09;;;;;;;0.82;0.20;;;11.90;96.80;;;;;;5095412;28;20429;-59
2023/11/14 01:28:36;;;;;;;0.60;0.20;;;11.90;99.90;;;;;;5094944;28;20429;-58
2023/11/14 01:31:03;;;;;;;0.90;0.20;;;11.90;99.90;;;;;;5094497;28;20463;-58
2023/11/14 01:33:32;;;;;;;1.40;0.30;;;12.00;93.70;;;;;;5094472;28;20452;-57
2023/11/14 01:35:59;;;;;;;0.82;0.30;;;12.00;96.20;;;;;;5094412;28;20507;-58
2023/11/14 01:38:26;;;;;;;1.60;0.30;;;12.10;86.20;;;;;;5094304;28;20426;-58
2023/11/14 01:40:53;;;;;;;1.63;0.30;;;12.00;87.20;;;;;;5096323;28;20474;-58
2023/11/14 01:43:20;;;;;;;1.30;0.30;;;12.00;99.90;;;;;;5097350;28;20483;-58
2023/11/14 01:45:47;;;;;;;1.20;0.30;;;12.00;95.20;;;;;;5097675;28;20413;-59
2023/11/14 01:48:15;;;;;;;2.70;0.50;;;11.90;98.20;;;;;;5097914;28;20471;-58
2023/11/14 01:50:44;;;;;;;1.50;0.30;;;11.90;99.90;;;;;;5097410;28;20483;-59
2023/11/14 01:53:11;;;;;;;3.20;0.40;;;11.90;92.70;;;;;;5097281;28;20483;-59
2023/11/14 01:55:39;;;;;;;1.48;0.40;;;11.90;91.50;;;;;;5097630;28;20467;-58
2023/11/14 01:58:07;;;;;;;1.00;0.30;;;12.00;99.90;;;;;;5098329;28;20436;-58
2023/11/14 02:00:35;;;;;;;0.68;0.20;;;12.00;97.40;;;;;;5098254;28;20424;-57
2023/11/14 02:03:02;;;;;;;2.42;0.40;;;12.00;94.90;;;;;;5098048;28;20424;-58
2023/11/14 02:05:29;;;;;;;3.15;0.30;;;12.00;93.30;;;;;;5098547;28;20888;-58
2023/11/14 02:07:58;;;;;;;0.70;0.28;;;12.00;99.90;;;;;;5097056;28;20856;-56
2023/11/14 02:10:48;;;;;;;0.90;0.30;;;11.90;99.90;;;;;;5097738;28;20829;-56
2023/11/14 02:13:15;;;;;;;1.20;0.28;;;11.80;99.90;;;;;;5086986;28;20852;-57
2023/11/14 02:15:42;;;;;;;1.33;0.30;;;11.80;99.90;;;;;;5097387;28;20418;-58
2023/11/14 02:18:09;;;;;;;1.70;0.30;;;11.80;99.90;;;;;;5097526;28;20474;-57
2023/11/14 02:20:36;;;;;;;1.70;0.40;;;11.70;99.90;;;;;;5097347;28;20845;-57
2023/11/14 02:23:11;;;;;;;2.90;0.40;;;11.70;99.90;;;;;;5097494;28;20467;-58
2023/11/14 02:25:40;;;;;;;1.30;0.30;;;11.70;99.90;;;;;;5097963;28;20902;-58
2023/11/14 02:28:08;;;;;;;2.17;0.40;;;11.70;99.90;;;;;;5097453;28;20426;-58
2023/11/14 02:30:36;;;;;;;1.90;0.30;;;11.70;99.90;;;;;;5097515;28;20418;-57
2023/11/14 02:33:06;;;;;;;2.47;0.40;;;11.70;99.90;;;;;;5097456;28;20433;-57
2023/11/14 02:35:34;;;;;;;1.13;0.30;;;11.60;99.90;;;;;;5096824;28;20429;-57
2023/11/14 02:38:01;;;;;;;1.30;0.30;;;11.50;99.90;;;;;;5097035;28;20471;-56
2023/11/14 02:40:28;;;;;;;1.20;0.30;;;11.50;99.90;;;;;;5097329;28;20422;-59
2023/11/14 02:42:56;;;;;;;0.95;0.30;;;11.50;99.90;;;;;;5097128;28;20436;-57
2023/11/14 02:45:25;;;;;;;2.80;0.40;;;11.50;99.90;;;;;;5097312;28;20406;-57
2023/11/14 02:47:52;;;;;;;3.70;0.40;;;11.50;99.90;;;;;;5097635;28;20425;-58
2023/11/14 02:50:37;;;;;;;1.80;0.30;;;11.50;99.90;;;;;;5097159;28;20478;-57
2023/11/14 02:53:03;;;;;;;2.63;0.40;;;11.40;99.90;;;;;;5096891;28;20699;-57
2023/11/14 02:55:31;;;;;;;1.50;0.50;;;11.40;99.90;;;;;;5096149;28;20425;-59
2023/11/14 02:57:59;;;;;;;2.20;0.35;;;11.30;99.90;;;;;;5097299;28;20406;-59
2023/11/14 03:00:26;;;;;;;1.80;0.40;;;11.30;99.90;;;;;;5096679;28;20863;-57
2023/11/14 03:02:53;;;;;;;1.08;0.30;;;11.30;99.90;;;;;;5097020;28;21058;-57
2023/11/14 03:05:21;;;;;;;2.25;0.40;;;11.20;99.90;;;;;;5096733;28;20507;-58
2023/11/14 03:07:48;;;;;;;4.10;0.40;;;11.20;99.90;;;;;;5096714;28;20487;-58
2023/11/14 03:10:15;;;;;;;1.35;0.43;;;11.20;99.90;;;;;;5096773;28;20771;-58
2023/11/14 03:12:42;;;;;;;1.45;0.40;;;11.20;99.90;;;;;;5097124;28;20434;-58
2023/11/14 03:15:11;;;;;;;2.20;0.40;;;11.20;99.90;;;;;;5096815;28;20448;-57
2023/11/14 03:17:38;;;;;;;1.05;0.40;;;11.10;99.90;;;;;;5096345;28;20892;-57
2023/11/14 03:20:07;;;;;;;2.47;0.30;;;11.10;99.90;;;;;;5096671;28;20418;-58
2023/11/14 03:22:34;;;;;;;2.47;0.40;;;11.10;99.90;;;;;;5097075;28;20522;-56
2023/11/14 03:25:00;;;;;;;0.80;0.30;;;11.10;99.90;;;;;;5096345;28;20714;-58
2023/11/14 03:27:28;;;;;;;3.28;0.40;;;11.10;99.90;;;;;;5095950;28;20471;-57
2023/11/14 03:29:55;;;;;;;3.05;0.40;;;11.10;99.90;;;;;;5096290;28;20789;-57
2023/11/14 03:32:24;;;;;;;1.13;0.40;;;11.10;99.90;;;;;;5096494;28;20422;-59
2023/11/14 03:34:52;;;;;;;1.65;0.40;;;11.00;99.90;;;;;;5096718;28;20422;-57
2023/11/14 03:37:19;;;;;;;1.60;0.40;;;11.00;99.90;;;;;;5096131;28;20476;-57
2023/11/14 03:39:46;;;;;;;2.45;0.40;;;11.00;99.90;;;;;;5096458;28;20417;-57
2023/11/14 03:42:13;;;;;;;2.40;0.40;;;11.00;99.90;;;;;;5096109;28;20422;-58
2023/11/14 03:44:40;;;;;;;1.70;0.40;;;10.90;99.90;;;;;;5096344;28;20425;-58
2023/11/14 03:47:07;;;;;;;2.17;0.35;;;10.90;99.90;;;;;;5095970;28;20747;-58
2023/11/14 03:49:35;;;;;;;1.00;0.30;;;10.80;99.90;;;;;;5095144;28;20538;-58
2023/11/14 03:52:02;;;;;;;2.70;0.40;;;10.80;99.90;;;;;;5094955;28;21057;-57
2023/11/14 03:54:30;;;;;;;3.40;0.40;;;10.80;99.90;;;;;;5094198;28;20487;-56
2023/11/14 03:56:56;;;;;;;1.30;0.33;;;10.80;99.90;;;;;;5094975;28;20426;-58
2023/11/14 03:59:23;;;;;;;1.50;0.40;;;10.80;99.90;;;;;;5094947;28;20425;-57
2023/11/14 04:01:50;;;;;;;2.90;0.40;;;10.80;99.90;;;;;;5094902;28;20893;-58
2023/11/14 04:04:18;;;;;;;0.70;0.30;;;10.80;99.90;;;;;;5093719;28;20738;-53
2023/11/14 04:06:46;;;;;;;2.03;0.30;;;10.80;99.90;;;;;;5094846;28;20453;-55
2023/11/14 04:09:13;;;;;;;0.70;0.30;;;10.80;99.90;;;;;;5095997;28;20413;-53
2023/11/14 04:11:46;;;;;;;0.60;0.28;;;10.80;99.90;;;;;;5096062;28;20840;-54
2023/11/14 04:14:13;;;;;;;2.00;0.40;;;10.80;99.90;;;;;;5095182;28;20434;-54
2023/11/14 04:16:40;;;;;;;0.90;0.30;;;10.80;99.90;;;;;;5095880;28;20447;-54
2023/11/14 04:19:07;;;;;;;1.00;0.30;;;10.90;99.90;;;;;;5095044;28;20426;-53
2023/11/14 04:21:34;;;;;;;0.98;0.40;;;10.90;99.90;;;;;;5095479;28;20424;-52
2023/11/14 04:24:03;;;;;;;1.35;0.30;;;10.90;99.90;;;;;;5095760;28;20475;-56
2023/11/14 04:26:30;;;;;;;0.70;0.30;;;11.00;99.90;;;;;;5095240;28;20787;-52
2023/11/14 04:28:57;;;;;;;0.80;0.30;;;11.00;99.90;;;;;;5095385;28;20428;-55
2023/11/14 04:31:24;;;;;;;0.70;0.30;;;10.90;99.90;;;;;;5095365;28;20445;-55
2023/11/14 04:33:51;;;;;;;1.58;0.38;;;11.00;99.90;;;;;;5095275;28;20483;-51
2023/11/14 04:36:19;;;;;;;1.10;0.40;;;10.90;99.90;;;;;;5095526;28;20421;-54
2023/11/14 04:38:46;;;;;;;0.90;0.40;;;10.90;99.90;;;;;;5095645;28;20422;-53
2023/11/14 04:41:17;;;;;;;1.40;0.30;;;10.90;99.90;;;;;;5095097;28;20874;-52
2023/11/14 04:43:44;;;;;;;2.50;0.50;;;10.90;99.90;;;;;;5095569;28;20446;-54
2023/11/14 04:46:11;;;;;;;1.05;0.40;;;10.90;99.90;;;;;;5094840;28;20422;-54
2023/11/14 04:48:38;;;;;;;1.30;0.40;;;11.00;99.90;;;;;;5094281;28;20829;-52
2023/11/14 04:51:05;;;;;;;1.60;0.40;;;10.90;99.90;;;;;;5094296;28;20425;-54
2023/11/14 04:53:32;;;;;;;2.60;0.57;;;10.90;99.90;;;;;;5094200;28;20434;-54
2023/11/14 04:55:59;;;;;;;2.40;0.47;;;10.90;99.90;;;;;;5094281;28;20443;-54
2023/11/14 04:58:27;;;;;;;1.38;0.40;;;10.90;99.90;;;;;;5094650;28;20491;-54
2023/11/14 05:00:54;;;;;;;1.08;0.30;;;10.90;99.90;;;;;;5094406;28;20418;-53
2023/11/14 05:03:21;;;;;;;1.65;0.30;;;10.90;99.90;;;;;;5094277;28;20417;-55
2023/11/14 05:05:48;;;;;;;0.90;0.40;;;11.00;99.90;;;;;;5094989;28;20422;-55
2023/11/14 05:08:15;;;;;;;1.40;0.30;;;11.00;99.90;;;;;;5094733;28;20425;-52
2023/11/14 05:10:42;;;;;;;1.05;0.30;;;11.10;99.90;;;;;;5095088;28;20794;-54
2023/11/14 05:13:09;;;;;;;2.50;0.30;;;11.20;99.90;;;;;;5093403;28;20706;-54
2023/11/14 05:15:37;;;;;;;0.90;0.40;;;11.10;99.90;;;;;;5097205;28;20444;-56
2023/11/14 05:18:05;;;;;;;0.60;0.30;;;11.20;99.90;;;;;;5098875;28;20425;-57
2023/11/14 05:20:32;;;;;;;1.10;0.40;;;11.20;99.90;;;;;;5098645;28;20523;-57
2023/11/14 05:22:59;;;;;;;2.20;0.30;;;11.20;99.90;;;;;;5097918;28;20422;-56
2023/11/14 05:25:26;;;;;;;1.08;0.38;;;11.20;99.90;;;;;;5097968;28;20429;-58
2023/11/14 05:27:54;;;;;;;0.90;0.30;;;11.20;99.90;;;;;;5098754;28;20422;-58
2023/11/14 05:30:21;;;;;;;2.05;0.40;;;11.20;99.90;;;;;;5098535;28;20428;-56
2023/11/14 05:32:49;;;;;;;2.10;0.40;;;11.20;99.90;;;;;;5098750;28;20425;-57
2023/11/14 05:35:17;;;;;;;1.77;0.40;;;11.30;99.90;;;;;;5097938;28;20421;-57
2023/11/14 05:37:44;;;;;;;2.13;0.30;;;11.30;99.90;;;;;;5098900;28;20461;-57
2023/11/14 05:40:12;;;;;;;0.52;0.30;;;11.20;99.90;;;;;;5098150;28;20425;-57
2023/11/14 05:42:40;;;;;;;1.10;0.30;;;11.20;99.90;;;;;;5097294;28;20454;-56
2023/11/14 05:45:08;;;;;;;0.90;0.40;;;11.20;99.90;;;;;;5097916;28;20538;-56
2023/11/14 05:47:35;;;;;;;2.58;0.30;;;11.20;99.90;;;;;;5097352;28;20464;-55
2023/11/14 05:50:04;;;;;;;1.50;0.40;;;11.20;99.90;;;;;;5096571;28;20479;-55
2023/11/14 05:52:31;;;;;;;1.15;0.30;;;11.10;99.90;;;;;;5096953;28;20478;-56
2023/11/14 05:54:58;;;;;;;1.77;0.30;;;11.10;99.90;;;;;;5097163;28;20433;-59
2023/11/14 05:57:25;;;;;;;6.50;0.40;;;11.00;99.90;;;;;;5096254;28;20482;-51
2023/11/14 05:59:55;;;;;;;0.70;0.40;;;11.10;99.90;;;;;;5097125;28;20474;-51
2023/11/14 06:02:22;;;;;;;0.90;0.30;;;11.10;99.90;;;;;;5096348;28;20455;-52
2023/11/14 06:04:49;;;;;;;0.88;0.40;;;11.00;99.90;;;;;;5096392;28;20422;-52
2023/11/14 06:07:19;;;;;;;1.50;0.45;;;11.00;99.90;;;;;;5095035;28;20476;-54
2023/11/14 06:09:46;;;;;;;1.10;0.30;;;11.00;99.90;;;;;;5094887;28;20820;-54
2023/11/14 06:12:13;;;;;;;0.90;0.30;;;10.90;99.90;;;;;;5096493;28;20417;-55
2023/11/14 06:14:41;;;;;;;1.80;0.30;;;10.90;99.90;;;;;;5095659;28;20478;-55
2023/11/14 06:17:08;;;;;;;1.20;0.40;;;10.90;99.90;;;;;;5094772;28;20444;-55
2023/11/14 06:19:37;;;;;;;0.82;0.30;;;10.90;99.90;;;;;;5094190;28;20430;-54
2023/11/14 06:22:04;;;;;;;1.20;0.30;;;10.90;99.90;;;;;;5096188;28;20517;-55
2023/11/14 06:24:33;;;;;;;0.80;0.30;;;10.90;99.90;;;;;;5093983;28;20821;-53
2023/11/14 06:27:00;;;;;;;2.95;0.40;;;10.90;99.90;;;;;;5093642;28;20805;-51
2023/11/14 06:29:27;;;;;;;0.80;0.30;;;10.90;99.90;;;;;;5094122;28;20456;-49
2023/11/14 06:31:54;;;;;;;0.60;0.30;;;10.90;99.90;;;;;;5093166;28;20974;-53
2023/11/14 06:34:22;;;;;;;1.70;0.35;;;10.90;99.90;;;;;;5091408;28;20471;-52
2023/11/14 06:36:49;;;;;;;1.00;0.30;;;10.80;99.90;;;;;;5094527;28;20717;-54
2023/11/14 06:39:16;;;;;;;0.70;0.30;;;10.90;99.90;;;;;;5094926;28;20763;-52
2023/11/14 06:41:51;;;;;;;1.98;0.40;;;10.90;99.90;;;;;;5095723;28;20864;-56
2023/11/14 06:44:19;;;;;;;0.90;0.40;;;10.90;99.90;;;;;;5094062;28;20737;-51
2023/11/14 06:46:47;;;;;;;0.90;0.40;;;10.90;99.90;;;;;;5094168;28;20421;-53
2023/11/14 06:49:14;;;;;;;1.08;0.30;;;10.90;99.90;;;;;;5094364;28;20426;-51
2023/11/14 06:51:41;;;;;;;1.20;0.40;;;10.90;99.90;;;;;;5095386;28;20422;-53
2023/11/14 06:54:08;;;;;;;1.00;0.30;;;11.00;99.90;;;;;;5096656;28;20465;-52
2023/11/14 06:56:35;;;;;;;1.70;0.40;;;11.00;99.90;;;;;;5093460;28;20491;-52
2023/11/14 06:59:04;;;;;;;0.52;0.30;;;11.00;99.90;;;;;;5094537;28;20451;-51
2023/11/14 07:01:32;;;;;;;0.40;0.20;;;11.00;99.90;;;;;;5094545;28;20422;-54
2023/11/14 07:03:59;;;;;;;0.70;0.30;;;11.00;99.90;;;;;;5095038;28;20414;-55
2023/11/14 07:06:26;;;;;;;0.50;0.27;;;11.00;99.90;;;;;;5095837;28;20418;-51
2023/11/14 07:08:53;;;;;;;1.20;0.40;;;11.10;99.90;;;;;;5093397;28;20521;-51
2023/11/14 07:11:21;;;;;;;2.90;0.30;;;11.10;99.90;;;;;;5093092;28;20429;-54
2023/11/14 07:13:48;;;;;;;0.90;0.30;;;11.10;99.90;;;;;;5092232;28;20944;-54
2023/11/14 07:16:16;;;;;;;0.50;0.20;;;11.10;99.90;;;;;;5093731;28;20418;-55
2023/11/14 07:18:44;;;;;;;1.60;0.30;;;11.20;99.90;;;;;;5092368;28;20479;-55
2023/11/14 07:21:11;;;;;;;0.90;0.30;;;11.20;99.90;;;;;;5092127;28;20480;-55
2023/11/14 07:23:38;;;;;;;1.20;0.30;;;11.20;99.90;;;;;;5092648;28;20491;-53
2023/11/14 07:26:06;;;;;;;1.88;0.30;;;11.20;99.90;;;;;;5094289;28;20521;-54
2023/11/14 07:28:33;;;;;;;0.77;0.30;;;11.30;99.90;;;;;;5093065;28;20444;-53
2023/11/14 07:31:00;;;;;;;1.40;0.30;;;11.30;99.90;;;;;;5090917;28;20438;-54
2023/11/14 07:33:29;;;;;;;1.10;0.20;;;11.30;99.90;;;;;;5073784;28;20418;-53
2023/11/14 07:35:56;;;;;;;1.20;0.30;;;11.50;99.90;;;;;;5092946;28;20428;-51
2023/11/14 07:38:23;;;;;;;1.45;0.30;;;11.50;79.60;;;;;;5092335;28;20536;-54
2023/11/14 07:40:50;;;;;;;2.10;0.30;;;11.50;92.30;;;;;;5093194;28;20642;-50
2023/11/14 07:43:21;;;;;;;1.00;0.30;;;11.50;85.00;;;;;;5090788;28;20473;-51
2023/11/14 07:45:48;;;;;;;0.50;0.20;;;11.50;86.80;;;;;;5080416;28;20453;-55
2023/11/14 07:48:16;;;;;;;0.55;0.20;;;11.50;90.80;;;;;;5093325;28;20422;-50
2023/11/14 07:50:44;;;;;;;0.50;0.30;;;11.40;94.00;;;;;;5090754;28;20747;-54
2023/11/14 07:53:11;;;;;;;0.77;0.20;;;11.40;93.40;;;;;;5088491;28;20443;-53
2023/11/14 07:55:38;;;;;;;0.65;0.30;;;11.30;95.00;;;;;;5094319;28;20487;-53
2023/11/14 07:58:05;;;;;;;0.95;0.20;;;11.40;99.90;;;;;;5093555;28;20729;-56
2023/11/14 08:00:32;;;;;;;1.85;0.30;;;11.40;92.00;;;;;;5092813;28;20843;-52
2023/11/14 08:02:59;;;;;;;1.00;0.20;;;11.40;82.90;;;;;;5094271;28;20518;-51
2023/11/14 08:05:27;;;;;;;0.50;0.20;;;11.40;79.60;;;;;;5092985;28;20425;-56
2023/11/14 08:07:56;;;;;;;1.20;0.30;;;11.50;80.30;;;;;;5093838;28;20426;-55
2023/11/14 08:10:23;;;;;;;0.40;0.20;;;11.50;88.20;;;;;;5091314;28;20409;-54
2023/11/14 08:12:50;;;;;;;0.70;0.28;;;11.50;67.50;;;;;;5089284;28;20418;-54
2023/11/14 08:15:17;;;;;;;1.45;0.30;;;11.50;58.30;;;;;;5091360;28;20706;-54
2023/11/14 08:17:44;;;;;;;0.80;0.20;;;11.60;60.80;;;;;;5080117;28;20866;-55
2023/11/14 08:20:12;;;;;;;0.50;0.30;;;11.60;68.10;;;;;;5072417;28;20506;-54
2023/11/14 08:22:39;;;;;;;1.17;0.30;;;11.60;50.70;;;;;;5090719;28;20528;-53
2023/11/14 08:25:08;;;;;;;0.50;0.30;;;11.60;51.90;;;;;;5089321;28;20516;-55
2023/11/14 08:27:36;;;;;;;1.80;0.20;;;11.70;55.70;;;;;;5088599;28;20429;-51
2023/11/14 08:30:05;;;;;;;1.67;0.30;;;11.80;54.20;;;;;;5091566;28;20418;-53
2023/11/14 08:32:32;;;;;;;1.00;0.20;;;11.70;44.60;;;;;;5093363;28;20888;-53
2023/11/14 08:35:00;;;;;;;0.70;0.30;;;11.70;49.00;;;;;;5088297;28;20868;-54
2023/11/14 08:37:27;;;;;;;0.70;0.20;;;11.80;45.60;;;;;;5089699;28;20621;-55
2023/11/14 08:39:55;;;;;;;0.40;0.20;;;11.80;37.10;;;;;;5072873;28;20939;-56
2023/11/14 08:42:23;;;;;;;0.50;0.30;;;11.80;48.30;;;;;;5076282;28;20425;-56
2023/11/14 08:44:50;;;;;;;0.73;0.20;;;11.90;72.60;;;;;;5091145;28;20417;-56
2023/11/14 08:47:18;;;;;;;1.40;0.20;;;11.90;35.20;;;;;;5075314;28;20429;-55
2023/11/14 08:49:45;;;;;;;0.40;0.20;;;11.90;60.60;;;;;;5091120;28;20479;-54
2023/11/14 08:52:12;;;;;;;1.33;0.20;;;11.90;52.00;;;;;;5090907;28;20921;-55
2023/11/14 08:54:39;;;;;;;0.40;0.20;;;12.00;50.30;;;;;;5092219;28;20499;-55
2023/11/14 08:57:06;;;;;;;0.40;0.20;;;11.90;67.00;;;;;;5088781;28;20449;-55
2023/11/14 08:59:35;;;;;;;0.40;0.20;;;11.80;84.60;;;;;;5089583;28;20422;-54
2023/11/14 09:02:02;;;;;;;0.70;0.20;;;11.70;86.70;;;;;;5087964;28;20503;-55
2023/11/14 09:04:30;;;;;;;0.60;0.20;;;11.70;95.00;;;;;;5088996;28;20422;-54
2023/11/14 09:06:57;;;;;;;0.70;0.20;;;11.70;90.60;;;;;;5088484;28;20465;-53
2023/11/14 09:09:24;;;;;;;0.40;0.20;;;11.70;88.30;;;;;;5087426;28;20496;-54
2023/11/14 09:11:51;;;;;;;0.40;0.10;;;11.60;90.80;;;;;;5084682;28;20442;-55
2023/11/14 09:14:18;;;;;;;0.90;0.20;;;11.60;99.90;;;;;;5089598;28;20429;-58
2023/11/14 09:16:46;;;;;;;1.10;0.20;;;11.70;99.70;;;;;;5088421;28;20445;-57
2023/11/14 09:19:13;;;;;;;0.50;0.20;;;11.80;95.90;;;;;;5090670;28;20475;-56
2023/11/14 09:21:40;;;;;;;0.70;0.20;;;11.80;72.50;;;;;;5091922;28;20483;-57
2023/11/14 09:24:08;;;;;;;0.40;0.20;;;11.90;92.20;;;;;;5090338;28;20441;-57
2023/11/14 09:26:35;;;;;;;0.50;0.20;;;11.90;42.20;;;;;;5092884;28;20447;-56
2023/11/14 09:29:01;;;;;;;0.90;0.20;;;12.00;44.90;;;;;;5093574;28;20421;-55
2023/11/14 09:31:28;;;;;;;0.60;0.20;;;11.90;36.80;;;;;;5091921;28;20429;-55
2023/11/14 09:33:57;;;;;;;0.40;0.20;;;11.90;33.20;;;;;;5090516;28;20937;-54
2023/11/14 09:36:27;;;;;;;0.70;0.20;;;11.90;30.90;;;;;;5092320;28;20430;-55
2023/11/14 09:38:54;;;;;;;0.80;0.20;;;11.90;8.70;;;;;;5091382;28;20814;-55
2023/11/14 09:41:21;;;;;;;0.60;0.20;;;11.90;24.70;;;;;;5090478;28;20506;-54
2023/11/14 09:43:48;;;;;;;1.50;0.20;;;12.00;23.50;;;;;;5093484;28;20911;-55
2023/11/14 09:46:16;;;;;;;0.80;0.20;;;12.10;40.20;;;;;;5077885;28;20502;-56
2023/11/14 09:48:45;;;;;;;1.80;0.20;;;12.10;1.40;;;;;;5071384;28;20858;-56
2023/11/14 09:51:14;;;;;;;0.70;0.20;;;12.20;2.00;;;;;;5092129;28;20444;-55
2023/11/14 09:53:44;;;;;;;0.70;0.20;;;12.20;1.00;;;;;;5089103;28;20437;-52
2023/11/14 09:56:11;;;;;;;0.67;0.20;;;12.20;5.20;;;;;;5091891;28;20487;-56
2023/11/14 09:58:39;;;;;;;0.50;0.20;;;12.20;1.00;;;;;;5088974;28;20453;-55
2023/11/14 10:01:06;;;;;;;1.20;0.28;;;12.20;1.00;;;;;;5091913;28;20888;-57
2023/11/14 10:03:33;;;;;;;0.40;0.20;;;12.10;1.00;;;;;;5095865;28;20486;-55
2023/11/14 10:06:02;;;;;;;0.80;0.20;;;12.10;1.00;;;;;;5096670;28;20471;-53
2023/11/14 10:08:33;;;;;;;1.50;0.30;;;12.10;1.00;;;;;;5095387;28;20495;-53
2023/11/14 10:11:09;;;;;;;1.10;0.20;;;12.20;1.00;;;;;;5097689;28;20446;-56
2023/11/14 10:13:36;;;;;;;1.40;0.53;;;12.20;1.00;;;;;;5093760;28;20441;-54
2023/11/14 10:16:14;;;;;;;2.30;0.10;;;12.20;1.00;;;;;;5092688;28;20431;-58
2023/11/14 10:18:41;;;;;;;1.10;0.20;;;12.10;1.00;;;;;;5083311;28;20874;-57
2023/11/14 10:21:24;;;;;;;2.42;0.30;;;12.10;1.00;;;;;;5089892;28;20513;-58
2023/11/14 10:23:55;;;;;;;0.57;0.20;;;12.00;1.00;;;;;;5088800;28;20442;-58
2023/11/14 10:26:22;;;;;;;1.13;0.20;;;12.00;1.00;;;;;;5090534;28;20433;-57
2023/11/14 10:28:54;;;;;;;0.40;0.20;;;12.00;1.00;;;;;;5092579;28;20445;-58
2023/11/14 10:31:38;;;;;;;1.60;0.20;;;12.00;1.00;;;;;;5091872;28;20482;-58
2023/11/14 10:34:06;;;;;;;1.40;0.20;;;11.90;1.00;;;;;;5093902;28;20421;-60
2023/11/14 10:36:46;;;;;;;0.63;0.20;;;12.10;1.00;;;;;;5092880;28;20439;-58
2023/11/14 10:39:14;;;;;;;0.50;0.20;;;12.10;1.00;;;;;;5086202;28;20448;-59
2023/11/14 10:41:41;;;;;;;1.20;0.20;;;12.10;1.00;;;;;;5092257;28;20792;-59
2023/11/14 10:44:09;;;;;;;1.10;0.20;;;12.10;1.00;;;;;;5095095;28;20429;-59
2023/11/14 10:46:37;;;;;;;0.90;0.20;;;12.20;1.00;;;;;;5094131;28;20433;-57
2023/11/14 10:49:08;;;;;;;0.50;0.20;;;12.20;1.00;;;;;;5093171;28;20418;-58
2023/11/14 10:51:37;;;;;;;0.50;0.20;;;12.30;1.00;;;;;;5094404;28;20561;-58
2023/11/14 10:54:06;;;;;;;0.80;0.20;;;12.20;1.00;;;;;;5092255;28;20491;-58
2023/11/14 10:56:37;;;;;;;0.50;0.20;;;12.20;1.00;;;;;;5093313;28;20524;-58
2023/11/14 10:59:08;;;;;;;0.80;0.20;;;12.20;1.00;;;;;;5092705;28;20537;-60
2023/11/14 11:01:35;;;;;;;0.40;0.20;;;12.20;1.00;;;;;;5094085;28;20687;-59
2023/11/14 11:04:03;;;;;;;2.28;0.40;;;12.30;1.00;;;;;;5089767;28;20436;-58
2023/11/14 11:06:31;;;;;;;0.63;0.20;;;12.30;1.00;;;;;;5091763;28;20856;-58
2023/11/14 11:08:59;;;;;;;0.60;0.20;;;12.40;1.00;;;;;;5081202;28;20447;-59
2023/11/14 11:11:32;;;;;;;0.50;0.20;;;12.40;1.00;;;;;;5082022;28;20465;-59
2023/11/14 11:14:03;;;;;;;1.10;0.20;;;12.40;1.00;;;;;;5086954;28;20426;-58
2023/11/14 11:16:44;;;;;;;0.50;0.20;;;12.40;1.00;;;;;;5090301;28;20849;-58
2023/11/14 11:19:12;;;;;;;0.90;0.20;;;12.40;1.00;;;;;;5092435;28;20773;-59
2023/11/14 11:21:39;;;;;;;0.50;0.20;;;12.50;1.00;;;;;;5090431;28;20735;-58
2023/11/14 11:24:12;;;;;;;1.05;0.20;;;12.50;1.00;;;;;;5090637;28;20461;-59
2023/11/14 11:27:17;;;;;;;0.63;0.20;;;12.60;1.00;;;;;;5089008;28;20926;-59
2023/11/14 11:29:50;;;;;;;0.38;0.20;;;12.60;1.00;;;;;;5093409;28;20524;-59
2023/11/14 11:32:27;;;;;;;0.95;0.20;;;12.60;1.00;;;;;;5092805;28;20547;-58
2023/11/14 11:35:27;;;;;;;0.50;0.20;;;12.60;1.00;;;;;;5092767;28;20438;-58
2023/11/14 11:37:55;;;;;;;1.00;0.20;;;12.60;1.00;;;;;;5091106;28;20442;-57
2023/11/14 11:40:26;;;;;;;0.50;0.20;;;12.70;1.00;;;;;;5093053;28;20428;-57
2023/11/14 11:42:58;;;;;;;0.80;0.20;;;12.80;1.00;;;;;;5091395;28;20424;-57
2023/11/14 11:45:49;;;;;;;1.10;0.30;;;12.70;1.00;;;;;;5092108;28;20430;-58
2023/11/14 11:48:31;;;;;;;0.50;0.20;;;12.70;1.00;;;;;;5090809;28;20433;-58
2023/11/14 11:51:20;;;;;;;0.70;0.20;;;12.70;1.00;;;;;;5091972;28;20429;-60
2023/11/14 11:53:49;;;;;;;2.97;0.30;;;12.80;1.00;;;;;;5092836;28;20854;-58
2023/11/14 11:56:40;;;;;;;0.50;0.20;;;12.70;1.00;;;;;;5094786;28;20861;-58
2023/11/14 11:59:07;;;;;;;1.23;0.20;;;12.70;1.00;;;;;;5092043;28;20465;-58
2023/11/14 12:01:52;;;;;;;1.00;0.20;;;12.80;1.00;;;;;;5090473;28;20446;-59
2023/11/14 12:04:19;;;;;;;0.40;0.20;;;12.90;1.00;;;;;;5090484;28;20442;-59
2023/11/14 12:06:47;;;;;;;0.60;0.25;;;12.90;1.00;;;;;;5089649;28;20430;-61
2023/11/14 12:09:15;;;;;;;1.00;0.20;;;12.90;1.00;;;;;;5089457;28;20418;-61
2023/11/14 12:11:42;;;;;;;1.50;0.30;;;13.00;1.00;;;;;;5086746;28;20742;-60
2023/11/14 12:14:09;;;;;;;0.50;0.20;;;13.00;1.00;;;;;;5088072;28;20422;-60
2023/11/14 12:16:38;;;;;;;0.60;0.20;;;13.00;1.00;;;;;;5088904;28;20488;-60
2023/11/14 12:19:05;;;;;;;1.50;0.30;;;12.90;1.00;;;;;;5088453;28;20429;-60
2023/11/14 12:21:35;;;;;;;1.10;0.20;;;12.80;1.00;;;;;;5090326;28;20417;-60
2023/11/14 12:24:03;;;;;;;1.00;0.20;;;12.80;1.00;;;;;;5085778;28;20787;-60
2023/11/14 12:26:31;;;;;;;2.65;0.30;;;12.80;1.00;;;;;;5089233;28;20868;-60
2023/11/14 12:28:58;;;;;;;0.60;0.20;;;12.70;1.00;;;;;;5092003;28;20495;-60
2023/11/14 12:31:28;;;;;;;0.80;0.20;;;12.80;1.00;;;;;;5091590;28;20436;-59
2023/11/14 12:33:58;;;;;;;0.50;0.20;;;12.80;1.00;;;;;;5094724;28;20467;-59
2023/11/14 12:36:26;;;;;;;0.70;0.30;;;12.90;1.00;;;;;;5091536;28;20425;-59
2023/11/14 12:38:54;;;;;;;1.20;0.20;;;13.00;1.00;;;;;;5089959;28;20528;-61
2023/11/14 12:41:27;;;;;;;1.00;0.20;;;13.00;1.00;;;;;;5090719;28;20425;-60
2023/11/14 12:43:58;;;;;;;0.40;0.20;;;12.90;1.00;;;;;;5089901;28;21590;-60
2023/11/14 12:46:27;;;;;;;0.93;0.30;;;12.90;1.00;;;;;;5089703;28;20418;-60
2023/11/14 12:49:12;;;;;;;0.70;0.20;;;12.90;1.00;;;;;;5090879;28;20580;-61
2023/11/14 12:51:42;;;;;;;0.95;0.30;;;12.90;1.00;;;;;;5091398;28;20421;-61
2023/11/14 12:54:10;;;;;;;0.50;0.20;;;12.90;1.00;;;;;;5091840;28;20457;-60
2023/11/14 12:56:38;;;;;;;0.70;0.20;;;12.90;1.00;;;;;;5090237;28;20429;-60
2023/11/14 12:59:07;;;;;;;0.70;0.30;;;12.80;1.00;;;;;;5090931;28;20537;-61